Ana Sayfa
METAR-TAF:

METAR-TAF

Havaalanları :

Chetwynd, İngiliz Kolombiyası, Kanada

Enlem: 55-42N, Boylam: 121-38W, yükseklik: 609 m

Güncel hava durumu gözlemi

Rapor saat 18:00 UTC de 1 saat ve 9 dakika önce yapıldı.
Rüzgar batı/güneybatıdan 10 kt
Sıcaklık -7°C
Nem 67%
Basınç 1020 hPa
Görüş mesafesi: 56.3 km
4000 ft yükseklikte az bulutlu
12000 ft yükseklikte parçalı bulutlu
21000 ft yükseklikte parçalı çok bulutlu
23000 ft yükseklikte parçalı çok bulutlu
24000 ft yükseklikte çok bulutlu

METAR: CYCQ 091800Z 24010KT 35SM FEW040 SCT120 BKN210 BKN230 OVC240 M07/M12 A3013 RMK SC2AC2CS2CI1CI1 VIRGA E+S-NW DIST FU MTS W SLP248

Saat: 12:09 (19:09 UTC)


TAF: eksik

4.000'den fazla havaalanı için hava durumu gözlemleri ve tahminleri (METAR ve TAF raporları).

Kullanılabilir istasyonlar harita üzerinde sarı ve kırmızı noktalarla gösterilir.

İstasyonun adını görmek için fareyi noktanın üzerinde gezdirin.

Sonrasında hava gözlem ve tahminlerini görmek için tıklayın.

Haritayı değiştirmek için: yaklaştırmak için siyah artı işaretli yeşil düğmeye ve uzaklaştırmak için de eksi işaretli düğmeye hızla tıklayın; bitişik haritalar için yeşil okları kullanın.


METAR-TAF: